M I D A S
Marine Information and Data Acquisition System
Tripno 305 of the Zeeleeuw from 2002-08-13 06:48:00 to 2002-08-13 13:10:00
Back to CruiseResearch ActivitiesStationsMapUnderway DataData graphs

EquipmentUnitsComment
TimeDGPSUTC
LatitudeDGPSDM.mWGS84
LongitudeDGPSDM.mWGS84
HeadingGyrodeg 
SOGDGPSknotsSpeed over ground
COGDGPSdegCourse over ground
DepthEcho soundermeters200 kHz
Missing or incorrect values are displayed as -999
Navigation data collected by the RV Zeeleeuw from 2002-08-13 06:48:00 to 2002-08-13 13:10:00
                                                                                    Next 1000 lines
Time Latitude Longitude Heading SOG COG Depth
2002-08-13 06:48:10 51°13.663 2°55.955 342.2 0.2 276.1 8.6
2002-08-13 06:48:16 51°13.664 2°55.953 341.8 0.4 282.6 8.6
2002-08-13 06:48:20 51°13.664 2°55.951 341.7 0.8 286.6 8.6
2002-08-13 06:48:26 51°13.665 2°55.948 341.8 1.1 288.3 8.6
2002-08-13 06:48:31 51°13.665 2°55.945 341.8 1.5 288.7 8.4
2002-08-13 06:48:35 51°13.666 2°55.942 341.8 1.6 289.8 -999
2002-08-13 06:48:40 51°13.667 2°55.938 341.5 1.9 291.7 -999
2002-08-13 06:48:47 51°13.668 2°55.932 341 2.1 291.4 -999
2002-08-13 06:48:52 51°13.67 2°55.927 340.3 2.3 290.7 -999
2002-08-13 06:48:56 51°13.67 2°55.922 339.7 2.4 289.6 -999
2002-08-13 06:49:01 51°13.672 2°55.917 339 2.5 288.8 -999
2002-08-13 06:49:06 51°13.673 2°55.911 338.5 2.7 288.5 -999
2002-08-13 06:49:12 51°13.674 2°55.904 338 2.7 287.8 -999
2002-08-13 06:49:16 51°13.675 2°55.899 337.7 2.9 287.4 -999
2002-08-13 06:49:22 51°13.677 2°55.891 337.3 3 286.8 -999
2002-08-13 06:49:26 51°13.678 2°55.886 337.2 3.1 286.7 -999
2002-08-13 06:49:32 51°13.679 2°55.878 336.8 3.2 286 -999
2002-08-13 06:49:36 51°13.68 2°55.872 336.5 3.3 285.9 -999
2002-08-13 06:49:42 51°13.682 2°55.863 335.8 3.3 285.5 -999
2002-08-13 06:49:46 51°13.683 2°55.858 335.3 3.3 285.4 -999
2002-08-13 06:49:51 51°13.684 2°55.851 334.7 3.3 284.4 -999
2002-08-13 06:49:56 51°13.685 2°55.844 334 3.3 284.2 -999
2002-08-13 06:50:01 51°13.686 2°55.836 333.2 3.2 283.7 -999
2002-08-13 06:50:07 51°13.687 2°55.828 332.3 3.2 283.3 -999
2002-08-13 06:50:12 51°13.688 2°55.821 331.5 3.2 282.5 -999
2002-08-13 06:50:16 51°13.689 2°55.816 330.5 3.2 281.7 -999
2002-08-13 06:50:22 51°13.689 2°55.807 329.5 3.2 280.9 -999
2002-08-13 06:50:26 51°13.69 2°55.802 328.5 3.1 280.1 -999
2002-08-13 06:50:31 51°13.691 2°55.795 327.5 3.1 279.2 -999
2002-08-13 06:50:36 51°13.691 2°55.788 326.5 3.1 278.3 -999
2002-08-13 06:50:41 51°13.692 2°55.782 325.3 3 277.7 -999
2002-08-13 06:50:47 51°13.692 2°55.774 324.3 3 276.9 -999
2002-08-13 06:50:51 51°13.693 2°55.769 323.5 3 276.3 13.9
2002-08-13 06:50:56 51°13.693 2°55.762 322.5 2.9 275.9 -999
2002-08-13 06:51:00 51°13.693 2°55.758 321.7 2.8 274.8 -999
2002-08-13 06:51:07 51°13.694 2°55.749 320.3 2.7 273.2 -999
2002-08-13 06:51:12 51°13.694 2°55.744 319.3 2.6 271.7 -999
2002-08-13 06:51:16 51°13.694 2°55.74 318.3 2.5 271.6 13.9
2002-08-13 06:51:21 51°13.694 2°55.735 317.2 2.3 270.2 12.9
2002-08-13 06:51:26 51°13.694 2°55.731 315.7 2 268.4 12.9
2002-08-13 06:51:31 51°13.694 2°55.727 313.5 1.8 266.9 12.8
2002-08-13 06:51:35 51°13.694 2°55.724 311.3 1.6 267.9 13
2002-08-13 06:51:40 51°13.694 2°55.721 309 1.4 266.1 14
2002-08-13 06:51:44 51°13.694 2°55.719 307 1.2 266.6 13.8
2002-08-13 06:51:51 51°13.693 2°55.716 305 1 265 13.4
2002-08-13 06:51:55 51°13.693 2°55.715 303 0.9 265.3 13.3
2002-08-13 06:52:00 51°13.693 2°55.714 300.7 0.7 264.9 13.3
2002-08-13 06:52:04 51°13.693 2°55.713 298 0.5 271.1 13.3
2002-08-13 06:52:10 51°13.693 2°55.712 294.7 0.3 286.4 13.4
2002-08-13 06:52:15 51°13.694 2°55.712 290.7 0.2 331.4 13.4
2002-08-13 06:52:20 51°13.694 2°55.712 287.2 0.3 11 13.5
2002-08-13 06:52:26 51°13.695 2°55.713 283 0.4 21.4 13.6
2002-08-13 06:52:31 51°13.696 2°55.714 279.3 0.6 30 13.9
2002-08-13 06:52:36 51°13.697 2°55.715 275.2 0.8 29.3 14.4
2002-08-13 06:52:40 51°13.698 2°55.716 270.7 1.1 30.3 14.6
2002-08-13 06:52:46 51°13.701 2°55.717 265.3 1.4 26 14.2
2002-08-13 06:52:51 51°13.703 2°55.719 258.8 1.6 23 12.7
2002-08-13 06:52:56 51°13.706 2°55.72 252.7 1.9 18.4 12.5
2002-08-13 06:53:01 51°13.709 2°55.721 245.8 2.4 12.1 12.5
2002-08-13 06:53:06 51°13.713 2°55.721 238.8 2.7 5.6 12.2
2002-08-13 06:53:11 51°13.718 2°55.721 231.3 3 358.7 11.8
2002-08-13 06:53:15 51°13.722 2°55.719 223.7 3.3 353 11.5
2002-08-13 06:53:20 51°13.727 2°55.717 218.3 3.8 345.8 10.8
2002-08-13 06:53:26 51°13.734 2°55.713 213.7 4.2 341.1 10.7
2002-08-13 06:53:31 51°13.74 2°55.709 210.5 4.5 337.8 10.6
2002-08-13 06:53:36 51°13.746 2°55.704 208.3 4.8 335.4 10.4
2002-08-13 06:53:40 51°13.752 2°55.699 207.3 5.2 333.4 10.4
2002-08-13 06:53:46 51°13.76 2°55.692 207.2 5.6 332.8 10.5
2002-08-13 06:53:51 51°13.768 2°55.686 207.2 6 332.9 10.6
2002-08-13 06:53:56 51°13.776 2°55.679 206.8 6.3 332.9 10.4
2002-08-13 06:54:00 51°13.783 2°55.674 206.3 6.7 332.5 10.7
2002-08-13 06:54:06 51°13.794 2°55.665 206.2 7 332.6 11.1
2002-08-13 06:54:11 51°13.802 2°55.658 206.3 7.2 332.5 10.9
2002-08-13 06:54:16 51°13.812 2°55.651 207 7.3 333.1 11
2002-08-13 06:54:20 51°13.819 2°55.645 206.5 7.4 333.4 11.2
2002-08-13 06:54:26 51°13.83 2°55.635 206.2 7.5 333 11
2002-08-13 06:54:31 51°13.84 2°55.627 206.5 7.7 332.9 10.8
2002-08-13 06:54:36 51°13.85 2°55.62 207 7.8 333.1 10.7
2002-08-13 06:54:41 51°13.86 2°55.613 207.5 8 333.8 10.3
2002-08-13 06:54:44 51°13.866 2°55.608 207.2 8.1 333.8 10.1
2002-08-13 06:54:50 51°13.879 2°55.599 207.7 8.1 333.8 10.8
2002-08-13 06:54:56 51°13.891 2°55.589 208 8.2 334 10.8
2002-08-13 06:55:01 51°13.902 2°55.582 208.7 8.3 335.5 10.8
2002-08-13 06:55:06 51°13.912 2°55.574 208.8 8.4 336.5 11.2
2002-08-13 06:55:11 51°13.923 2°55.566 209.2 8.4 336 11.3
2002-08-13 06:55:16 51°13.934 2°55.558 209.7 8.4 335.9 11.3
2002-08-13 06:55:20 51°13.942 2°55.552 209.8 8.5 336.6 10.7
2002-08-13 06:55:26 51°13.955 2°55.543 209.7 8.6 336.7 11
2002-08-13 06:55:30 51°13.964 2°55.537 210.2 8.6 336.9 11.3
2002-08-13 06:55:35 51°13.975 2°55.53 209.7 8.6 336.6 10.9
2002-08-13 06:55:41 51°13.988 2°55.52 209.2 8.6 336 11
2002-08-13 06:55:46 51°13.999 2°55.511 208.3 8.6 334.7 10.7
2002-08-13 06:55:51 51°14.01 2°55.503 208.5 8.6 334.1 10.9
2002-08-13 06:55:56 51°14.02 2°55.494 208.3 8.6 333.8 11.1
2002-08-13 06:56:00 51°14.029 2°55.488 208 8.6 333.6 11.1
2002-08-13 06:56:05 51°14.04 2°55.479 208.3 8.6 333.8 11.2
2002-08-13 06:56:10 51°14.05 2°55.471 209.3 8.6 334.6 11
2002-08-13 06:56:15 51°14.061 2°55.463 210.5 8.6 335.4 10.7
2002-08-13 06:56:20 51°14.072 2°55.456 211.2 8.6 336.2 10.7
2002-08-13 06:56:24 51°14.081 2°55.45 210.8 8.6 336.9 10.7
2002-08-13 06:56:31 51°14.097 2°55.439 210 8.7 336.5 10.7
2002-08-13 06:56:35 51°14.106 2°55.433 209.5 8.8 336.1 10.8
2002-08-13 06:56:40 51°14.117 2°55.425 209 8.9 335.4 10.7
2002-08-13 06:56:45 51°14.128 2°55.416 208.8 9 335 10.6
2002-08-13 06:56:50 51°14.14 2°55.408 208.7 9.1 334.6 10.8
2002-08-13 06:56:55 51°14.151 2°55.398 207.7 9.2 334.2 10.7
2002-08-13 06:57:00 51°14.163 2°55.39 207 9.3 333.5 11
2002-08-13 06:57:06 51°14.177 2°55.379 207 9.4 332.9 11.1
2002-08-13 06:57:11 51°14.189 2°55.369 205.7 9.5 332.3 11.1
2002-08-13 06:57:16 51°14.2 2°55.358 203.5 9.7 330.9 11
2002-08-13 06:57:20 51°14.21 2°55.348 201.7 9.9 328.3 11.1
2002-08-13 06:57:26 51°14.223 2°55.333 199.5 10 326.3 11.2
2002-08-13 06:57:31 51°14.235 2°55.319 197.3 10.1 324 11.1
2002-08-13 06:57:35 51°14.243 2°55.307 194.7 10.2 321.4 10.9
2002-08-13 06:57:40 51°14.254 2°55.292 192.2 10.3 318.8 10.8
2002-08-13 06:57:45 51°14.264 2°55.275 190 10.4 316.3 11
2002-08-13 06:57:51 51°14.276 2°55.255 187.2 10.5 314 10.8
2002-08-13 06:57:56 51°14.286 2°55.237 184.8 10.5 312.1 10.7
2002-08-13 06:58:00 51°14.293 2°55.222 183.3 10.6 309.6 11
2002-08-13 06:58:06 51°14.304 2°55.2 182.8 10.7 308.7 10.8
2002-08-13 06:58:11 51°14.314 2°55.181 183.3 10.7 308.6 10.9
2002-08-13 06:58:16 51°14.323 2°55.162 183 10.8 308.8 10.9
2002-08-13 06:58:21 51°14.332 2°55.144 181.7 10.8 307.7 10.9
2002-08-13 06:58:26 51°14.341 2°55.125 181 10.8 306.8 10.5
2002-08-13 06:58:31 51°14.35 2°55.105 181 10.9 306.6 10.5
2002-08-13 06:58:35 51°14.358 2°55.09 182.2 10.9 307.2 11.1
2002-08-13 06:58:40 51°14.367 2°55.072 184.7 10.9 309.2 10.9
2002-08-13 06:58:45 51°14.378 2°55.054 188.2 10.9 311.8 10.7
2002-08-13 06:58:51 51°14.39 2°55.034 190.2 10.9 314 10.6
2002-08-13 06:58:56 51°14.401 2°55.017 191.3 10.9 315.4 10.5
2002-08-13 06:59:01 51°14.412 2°54.999 192.2 10.9 316.5 10.4
2002-08-13 06:59:05 51°14.42 2°54.986 193 10.8 317 10.4
2002-08-13 06:59:10 51°14.431 2°54.971 194.5 10.6 318.1 10.4
2002-08-13 06:59:15 51°14.442 2°54.956 196.5 10.4 319 10.3
2002-08-13 06:59:20 51°14.453 2°54.942 198 10 321 10.3
2002-08-13 06:59:26 51°14.466 2°54.926 198.7 9.8 321.8 10.2
2002-08-13 06:59:31 51°14.476 2°54.914 198.3 9.6 322 10.2
2002-08-13 06:59:35 51°14.484 2°54.903 198.2 9.4 321.6 10.3
2002-08-13 06:59:41 51°14.496 2°54.888 197.3 9.2 321 10.3
2002-08-13 06:59:46 51°14.506 2°54.875 196.7 9.1 320.3 10.3
2002-08-13 06:59:51 51°14.516 2°54.863 196.3 9 320 10.2
2002-08-13 06:59:56 51°14.525 2°54.85 196.5 8.9 319.8 10.3
2002-08-13 07:00:01 51°14.536 2°54.839 196.2 8.8 319.6 10.2
2002-08-13 07:00:06 51°14.545 2°54.827 195.8 8.7 319.3 10.2
2002-08-13 07:00:11 51°14.555 2°54.815 195.5 8.7 318.9 10.1
2002-08-13 07:00:16 51°14.564 2°54.802 195.5 8.6 318.6 10.1
2002-08-13 07:00:21 51°14.572 2°54.789 195 8.6 318.2 10.1
2002-08-13 07:00:26 51°14.58 2°54.776 194.8 8.5 318.2 10.1
2002-08-13 07:00:31 51°14.589 2°54.763 195 8.5 318.4 10.1
2002-08-13 07:00:36 51°14.598 2°54.75 195.8 8.4 318.9 10.1
2002-08-13 07:00:40 51°14.605 2°54.74 196.3 8.4 319.5 10.1
2002-08-13 07:00:46 51°14.616 2°54.725 197.2 8.6 320.4 10.1
2002-08-13 07:00:51 51°14.626 2°54.713 198.2 9 321.4 10.1
2002-08-13 07:00:56 51°14.636 2°54.7 199.5 9.4 322.6 10.1
2002-08-13 07:01:00 51°14.645 2°54.689 199.8 9.7 323.2 10
2002-08-13 07:01:06 51°14.659 2°54.674 199.5 10 323.3 10
2002-08-13 07:01:11 51°14.671 2°54.662 199.5 10.3 323.1 10
2002-08-13 07:01:15 51°14.68 2°54.65 199.2 10.5 322.9 10.1
2002-08-13 07:01:20 51°14.692 2°54.636 198.8 10.7 322.8 10.1
2002-08-13 07:01:24 51°14.702 2°54.625 198.5 10.9 322.3 10
2002-08-13 07:01:31 51°14.719 2°54.603 197.5 11.2 321.7 10.2
2002-08-13 07:01:36 51°14.732 2°54.585 196.8 11.7 320.9 10.2
2002-08-13 07:01:40 51°14.742 2°54.571 196 12.1 320.3 10.1
2002-08-13 07:01:46 51°14.757 2°54.548 195.2 12.4 319.8 10
2002-08-13 07:01:51 51°14.77 2°54.529 194.5 12.8 318.9 10
2002-08-13 07:01:56 51°14.784 2°54.51 194.3 13.1 318.7 10
2002-08-13 07:01:59 51°14.793 2°54.499 194.5 13.2 318.9 9.9
2002-08-13 07:02:06 51°14.813 2°54.474 195.2 13.4 319.2 9.8
2002-08-13 07:02:11 51°14.827 2°54.455 195.7 13.5 319.9 9.8
2002-08-13 07:02:16 51°14.842 2°54.435 196.2 13.6 320.3 9.6
2002-08-13 07:02:20 51°14.854 2°54.42 196.3 13.7 320.8 9.6
2002-08-13 07:02:25 51°14.869 2°54.401 196.8 13.7 321.1 9.6
2002-08-13 07:02:31 51°14.887 2°54.378 196.8 13.8 321.1 9.4
2002-08-13 07:02:35 51°14.899 2°54.364 196.8 13.8 321.4 9.3
2002-08-13 07:02:40 51°14.914 2°54.344 196.5 13.9 321.3 9.2
2002-08-13 07:02:46 51°14.931 2°54.32 196.5 13.9 321.6 9.2
2002-08-13 07:02:51 51°14.946 2°54.301 196.8 13.8 322 9
2002-08-13 07:02:55 51°14.959 2°54.287 196.7 13.8 322.7 8.9
2002-08-13 07:03:00 51°14.974 2°54.269 197.3 13.8 323.1 8.8
2002-08-13 07:03:05 51°14.99 2°54.252 197 13.7 322.8 8.8
2002-08-13 07:03:11 51°15.009 2°54.23 197.2 13.7 323.2 8.8
2002-08-13 07:03:15 51°15.02 2°54.215 196.5 13.8 322.6 8.8
2002-08-13 07:03:20 51°15.035 2°54.196 197.2 13.8 323.2 8.9
2002-08-13 07:03:26 51°15.052 2°54.173 196.8 13.8 322.7 8.9
2002-08-13 07:03:31 51°15.067 2°54.154 196.8 13.8 322.8 9
2002-08-13 07:03:36 51°15.083 2°54.136 196.8 13.9 322.3 9.1
2002-08-13 07:03:40 51°15.096 2°54.121 196.3 14 321.6 9.1
2002-08-13 07:03:45 51°15.111 2°54.102 197.2 14.1 321.5 9.2
2002-08-13 07:03:51 51°15.129 2°54.078 196.2 14.1 320.9 9.3
2002-08-13 07:03:55 51°15.141 2°54.063 197 14.1 321.4 9.3
2002-08-13 07:04:00 51°15.156 2°54.042 196.7 14.1 320.9 9.3
2002-08-13 07:04:06 51°15.174 2°54.019 197 14.1 321.6 9.4
2002-08-13 07:04:11 51°15.19 2°54 197.3 14.1 321.5 9.5
2002-08-13 07:04:16 51°15.205 2°53.981 197 14.1 321.4 9.6
2002-08-13 07:04:21 51°15.221 2°53.962 198 14.1 322.1 9.6
2002-08-13 07:04:26 51°15.237 2°53.944 198.7 14.1 323.2 9.7
2002-08-13 07:04:31 51°15.253 2°53.926 200.5 14.1 324.5 9.7
2002-08-13 07:04:35 51°15.265 2°53.911 200.5 14.1 324.5 9.7
2002-08-13 07:04:40 51°15.282 2°53.894 201.5 14.1 325.4 9.8
2002-08-13 07:04:46 51°15.301 2°53.872 201.2 14.1 325.1 9.8
2002-08-13 07:04:51 51°15.318 2°53.855 201.5 14.1 325.6 10
2002-08-13 07:04:56 51°15.334 2°53.837 201.7 14.2 325 10
2002-08-13 07:05:01 51°15.35 2°53.819 201.7 14.2 325.9 10
2002-08-13 07:05:06 51°15.366 2°53.802 202.8 14.2 327.2 10.1
2002-08-13 07:05:11 51°15.383 2°53.785 203.7 14.2 327.3 10.2
2002-08-13 07:05:16 51°15.4 2°53.77 205.3 14.2 328.7 10.3
2002-08-13 07:05:20 51°15.413 2°53.756 205 14.2 329 10.3
2002-08-13 07:05:26 51°15.434 2°53.738 205.7 14.2 329.8 10.4
2002-08-13 07:05:31 51°15.451 2°53.722 206.2 14.2 329.7 10.5
2002-08-13 07:05:36 51°15.468 2°53.707 206.8 14.2 330.8 10.5
2002-08-13 07:05:40 51°15.481 2°53.694 207.2 14.2 330.9 10.7
2002-08-13 07:05:44 51°15.495 2°53.683 207 14.2 331.4 10.7
2002-08-13 07:05:51 51°15.52 2°53.662 208.3 14.2 331.7 10.8
2002-08-13 07:05:56 51°15.537 2°53.647 207.8 14.2 332 10.8
2002-08-13 07:06:01 51°15.555 2°53.633 208.8 14.2 333.1 10.9
2002-08-13 07:06:06 51°15.572 2°53.618 208.2 14.2 332.3 11
2002-08-13 07:06:11 51°15.589 2°53.604 208.5 14.1 332.9 11.1
2002-08-13 07:06:16 51°15.606 2°53.589 208.3 14.1 332.1 11.1
2002-08-13 07:06:20 51°15.62 2°53.577 208 14.1 332.5 11.2
2002-08-13 07:06:24 51°15.634 2°53.565 208.2 14.1 332 11.3
2002-08-13 07:06:31 51°15.658 2°53.545 207.8 14.1 332.2 11.4
2002-08-13 07:06:36 51°15.676 2°53.531 208.5 14.1 332.5 11.4
2002-08-13 07:06:40 51°15.69 2°53.519 207.7 14.1 331.9 11.5
2002-08-13 07:06:45 51°15.707 2°53.504 208.3 14.1 332.1 11.6
2002-08-13 07:06:51 51°15.727 2°53.486 208 14.1 331.7 11.6
2002-08-13 07:06:56 51°15.744 2°53.472 208.5 14.1 332.5 11.7
2002-08-13 07:07:00 51°15.758 2°53.459 208.2 14.1 331.8 11.7
2002-08-13 07:07:04 51°15.771 2°53.448 208.2 14.1 332.8 11.8
2002-08-13 07:07:11 51°15.796 2°53.428 208.2 14.1 332.1 11.8
2002-08-13 07:07:15 51°15.81 2°53.416 208 14.1 332.2 11.8
2002-08-13 07:07:21 51°15.83 2°53.398 208.3 14.1 332.2 11.8
2002-08-13 07:07:26 51°15.847 2°53.384 207.7 14.1 331.9 11.9
2002-08-13 07:07:31 51°15.865 2°53.37 208.3 14.1 332.2 12
2002-08-13 07:07:36 51°15.882 2°53.354 207.7 14.1 331.9 12
2002-08-13 07:07:40 51°15.895 2°53.343 208.2 14.1 332.4 12.1
2002-08-13 07:07:46 51°15.916 2°53.325 208 14.1 331.9 12.1
2002-08-13 07:07:51 51°15.934 2°53.311 208.3 14.1 332.5 12.1
2002-08-13 07:07:56 51°15.951 2°53.295 208 14.2 331.9 12.1
2002-08-13 07:08:00 51°15.965 2°53.284 208 14.2 332.4 12.2
2002-08-13 07:08:06 51°15.986 2°53.266 207.8 14.2 331.8 12.2
2002-08-13 07:08:11 51°16.003 2°53.252 208 14.2 332.4 12.2
2002-08-13 07:08:16 51°16.021 2°53.237 207.8 14.2 332.3 12.3
2002-08-13 07:08:20 51°16.035 2°53.226 207.8 14.2 332.3 12.3
2002-08-13 07:08:24 51°16.049 2°53.214 207.7 14.2 332.3 12.4
2002-08-13 07:08:31 51°16.073 2°53.193 207.5 14.3 331.9 12.4
2002-08-13 07:08:36 51°16.091 2°53.179 208 14.3 332.3 12.4
2002-08-13 07:08:40 51°16.105 2°53.166 207.2 14.3 331.9 12.5
2002-08-13 07:08:44 51°16.119 2°53.155 207.7 14.3 332.3 12.5
2002-08-13 07:08:51 51°16.143 2°53.133 207.5 14.3 331.8 12.5
2002-08-13 07:08:56 51°16.161 2°53.119 207.8 14.3 332.4 12.6
2002-08-13 07:09:00 51°16.175 2°53.107 207.5 14.3 332 12.6
2002-08-13 07:09:06 51°16.196 2°53.089 207.7 14.3 332.5 12.6
2002-08-13 07:09:11 51°16.213 2°53.074 207.5 14.3 332.3 12.7
2002-08-13 07:09:15 51°16.227 2°53.063 207.7 14.3 332.9 12.7
2002-08-13 07:09:21 51°16.249 2°53.045 208 14.3 332.9 12.7
2002-08-13 07:09:25 51°16.263 2°53.034 207.3 14.3 333 12.7
2002-08-13 07:09:31 51°16.284 2°53.017 208 14.3 333 12.7
2002-08-13 07:09:35 51°16.298 2°53.005 207.5 14.3 333.1 12.7
2002-08-13 07:09:41 51°16.319 2°52.988 208 14.3 333.2 12.6
2002-08-13 07:09:46 51°16.337 2°52.973 207.3 14.3 332.8 12.6
2002-08-13 07:09:51 51°16.354 2°52.958 207.7 14.3 332.8 12.6
2002-08-13 07:09:56 51°16.372 2°52.943 207 14.2 331.7 12.6
2002-08-13 07:10:00 51°16.386 2°52.932 207.3 14.2 332.2 12.5
2002-08-13 07:10:06 51°16.407 2°52.914 207.2 14.2 331.7 12.4
2002-08-13 07:10:11 51°16.424 2°52.9 207.7 14.2 332.2 12.4
2002-08-13 07:10:16 51°16.441 2°52.885 207.7 14.2 332.4 12.4
2002-08-13 07:10:20 51°16.455 2°52.874 207.5 14.1 332.6 12.3
2002-08-13 07:10:25 51°16.472 2°52.858 208 14.3 332.5 12.2
2002-08-13 07:10:31 51°16.493 2°52.842 207.3 14.2 332.4 12.2
2002-08-13 07:10:36 51°16.51 2°52.827 207.8 14.1 332.7 12.1
2002-08-13 07:10:40 51°16.524 2°52.815 207.3 14.1 332.3 12
2002-08-13 07:10:45 51°16.542 2°52.801 208 14.1 332.8 11.9
2002-08-13 07:10:51 51°16.563 2°52.783 207.5 14.1 332.2 11.8
2002-08-13 07:10:55 51°16.577 2°52.772 207.8 14.1 332.7 11.7
2002-08-13 07:11:01 51°16.598 2°52.755 207.5 14.1 332.2 11.7
2002-08-13 07:11:06 51°16.615 2°52.74 207.5 14.1 332.4 11.6
2002-08-13 07:11:11 51°16.632 2°52.725 207.5 14.2 331.8 11.5
2002-08-13 07:11:15 51°16.646 2°52.714 207.2 14.1 332.2 11.4
2002-08-13 07:11:20 51°16.663 2°52.699 207.3 14.1 331.9 11.2
2002-08-13 07:11:24 51°16.677 2°52.688 207 14.1 332.1 10.9
2002-08-13 07:11:31 51°16.701 2°52.667 207.5 14.1 332 10.7
2002-08-13 07:11:36 51°16.718 2°52.652 207.3 14.1 331.9 10.5
2002-08-13 07:11:39 51°16.728 2°52.643 207.7 14.1 332.5 10.2
2002-08-13 07:11:46 51°16.753 2°52.623 207.3 14 332.1 9.7
2002-08-13 07:11:51 51°16.77 2°52.609 207.5 14 332.5 9.9
2002-08-13 07:11:56 51°16.787 2°52.594 207.3 13.9 332 10.3
2002-08-13 07:12:01 51°16.804 2°52.58 208 14 332.6 10.2
2002-08-13 07:12:04 51°16.815 2°52.571 208.3 14 332.4 9.8
2002-08-13 07:12:11 51°16.839 2°52.552 208.3 14.1 333.5 9.9
2002-08-13 07:12:15 51°16.853 2°52.54 208.7 14.1 333.5 9.8
2002-08-13 07:12:20 51°16.871 2°52.527 208.2 14.1 333.8 10.2
2002-08-13 07:12:26 51°16.892 2°52.51 208.8 14.1 334.1 10.3
2002-08-13 07:12:31 51°16.909 2°52.496 208.3 14.2 333.7 10.3
2002-08-13 07:12:35 51°16.924 2°52.485 208.8 14.2 334.4 10
2002-08-13 07:12:40 51°16.941 2°52.47 208.5 14.2 333.7 9.6
2002-08-13 07:12:46 51°16.962 2°52.454 208.7 14.2 334.3 9.6
2002-08-13 07:12:51 51°16.98 2°52.44 208.8 14.1 333.8 9.6
2002-08-13 07:12:55 51°16.994 2°52.43 208.3 14.1 334.1 9.6
2002-08-13 07:13:00 51°17.012 2°52.416 209.2 14.1 334.2 9.8
2002-08-13 07:13:06 51°17.033 2°52.399 208.5 14.1 334 10
2002-08-13 07:13:11 51°17.051 2°52.386 209.2 14.2 334.5 9.8
2002-08-13 07:13:16 51°17.068 2°52.372 208.5 14.3 334 10
2002-08-13 07:13:20 51°17.083 2°52.362 209.2 14.3 334.6 10.2
2002-08-13 07:13:26 51°17.104 2°52.344 208.5 14.3 333.5 10.4
2002-08-13 07:13:31 51°17.122 2°52.33 208.5 14.3 333.6 10.1
2002-08-13 07:13:35 51°17.136 2°52.318 208.5 14.3 333 10.1
2002-08-13 07:13:40 51°17.154 2°52.305 208.5 14.3 333.4 10.4
2002-08-13 07:13:44 51°17.168 2°52.294 209 14.3 333.9 10.3
2002-08-13 07:13:51 51°17.193 2°52.274 208.7 14.3 334 10.5
2002-08-13 07:13:55 51°17.208 2°52.264 209.3 14.3 334.5 10.4
2002-08-13 07:14:01 51°17.229 2°52.247 208.8 14.3 333.9 10.4
2002-08-13 07:14:06 51°17.247 2°52.233 208.8 14.3 334.1 10.7
2002-08-13 07:14:10 51°17.261 2°52.221 208.7 14.3 333.6 10.5
2002-08-13 07:14:16 51°17.282 2°52.205 208.7 14.3 333.9 10.4
2002-08-13 07:14:20 51°17.296 2°52.194 208.5 14.3 333.5 10.7
2002-08-13 07:14:26 51°17.318 2°52.176 208 14.3 333 10.7
2002-08-13 07:14:30 51°17.332 2°52.165 208.3 14.3 333 10.5
2002-08-13 07:14:36 51°17.353 2°52.147 207.7 14.3 332.5 10.8
2002-08-13 07:14:40 51°17.367 2°52.136 208.8 14.3 333.3 10.4
2002-08-13 07:14:45 51°17.385 2°52.121 208.2 14.3 332.5 10.7
2002-08-13 07:14:51 51°17.406 2°52.105 209 14.3 333.9 10.7
2002-08-13 07:14:55 51°17.42 2°52.092 208.7 14.3 333.2 10.6
2002-08-13 07:15:00 51°17.438 2°52.08 208.8 14.3 334 10.7
2002-08-13 07:15:04 51°17.452 2°52.068 209 14.3 333.9 10.5
2002-08-13 07:15:11 51°17.477 2°52.049 208.5 14.4 334 10.7
2002-08-13 07:15:16 51°17.495 2°52.035 208.5 14.4 333.9 10.5
2002-08-13 07:15:20 51°17.508 2°52.022 206.8 14.3 332 10.6
2002-08-13 07:15:26 51°17.53 2°52.005 206.8 14.2 331.8 10.4
2002-08-13 07:15:31 51°17.547 2°51.988 205.7 14.3 330.3 10.5
2002-08-13 07:15:35 51°17.561 2°51.976 205.5 14.3 330.6 10.6
2002-08-13 07:15:41 51°17.581 2°51.956 205.5 14.3 329.7 10.5
2002-08-13 07:15:46 51°17.598 2°51.941 205 14.3 330 10.6
2002-08-13 07:15:51 51°17.615 2°51.925 205.7 14.3 330 10.6
2002-08-13 07:15:55 51°17.629 2°51.912 204 14.3 329.5 10.3
2002-08-13 07:16:00 51°17.646 2°51.895 204 14.3 328.8 10.5
2002-08-13 07:16:05 51°17.663 2°51.878 202.8 14.3 327.9 10.6
2002-08-13 07:16:11 51°17.683 2°51.858 203 14.3 328 10.4
2002-08-13 07:16:15 51°17.696 2°51.844 201.3 14.3 326.7 10.4
2002-08-13 07:16:20 51°17.713 2°51.826 200.5 14.3 326.3 10.2
2002-08-13 07:16:26 51°17.732 2°51.804 199.5 14.3 324.7 10.4
2002-08-13 07:16:31 51°17.748 2°51.785 198.7 14.3 324.2 10.4
2002-08-13 07:16:35 51°17.761 2°51.77 197.7 14.3 323.2 10.4
2002-08-13 07:16:40 51°17.776 2°51.75 196.3 14.3 322.2 10.3
2002-08-13 07:16:45 51°17.792 2°51.73 196 14.3 321.7 10.4
2002-08-13 07:16:51 51°17.81 2°51.705 194.7 14.3 320.3 10.3
2002-08-13 07:16:56 51°17.825 2°51.685 195.2 14.3 320.2 10.3
2002-08-13 07:17:01 51°17.84 2°51.663 194.3 14.3 319.3 10.1
2002-08-13 07:17:05 51°17.852 2°51.647 194.8 14.3 319.9 10.3
2002-08-13 07:17:10 51°17.867 2°51.626 194.7 14.3 319.3 10.3
2002-08-13 07:17:15 51°17.882 2°51.606 193.3 14.3 319.3 10.3
2002-08-13 07:17:20 51°17.896 2°51.584 193 14.3 318.1 10.3
2002-08-13 07:17:26 51°17.914 2°51.558 192.2 14.4 317.3 10.6
2002-08-13 07:17:31 51°17.929 2°51.537 192.3 14.4 317.4 10.7
2002-08-13 07:17:36 51°17.943 2°51.514 191.5 14.4 316.7 10.8
2002-08-13 07:17:40 51°17.955 2°51.497 192 14.5 317.3 10.9
2002-08-13 07:17:46 51°17.973 2°51.471 191.5 14.5 317 10.9
2002-08-13 07:17:51 51°17.988 2°51.45 192.3 14.5 317.7 10.9
2002-08-13 07:17:55 51°18 2°51.432 191.7 14.5 317.2 11
2002-08-13 07:18:00 51°18.015 2°51.411 192.5 14.5 317.6 11.3
2002-08-13 07:18:05 51°18.029 2°51.389 191.7 14.5 317.2 11.4
2002-08-13 07:18:11 51°18.047 2°51.363 192.2 14.5 317.6 11.5
2002-08-13 07:18:16 51°18.062 2°51.341 191.7 14.5 316.8 11.4
2002-08-13 07:18:21 51°18.076 2°51.319 191.8 14.5 317.1 11.5
2002-08-13 07:18:26 51°18.091 2°51.297 191.5 14.5 316.6 11.8
2002-08-13 07:18:31 51°18.106 2°51.275 191.5 14.5 316.9 12
2002-08-13 07:18:35 51°18.118 2°51.257 191.7 14.5 316.8 12.2
2002-08-13 07:18:41 51°18.136 2°51.231 191.7 14.5 316.9 12.1
2002-08-13 07:18:46 51°18.15 2°51.209 192.2 14.5 317.4 12.2
2002-08-13 07:18:51 51°18.165 2°51.186 190.5 14.5 316.1 12.5
2002-08-13 07:18:55 51°18.176 2°51.168 189.3 14.5 315.4 12.6
2002-08-13 07:19:00 51°18.19 2°51.145 188.5 14.5 313.6 12.5
2002-08-13 07:19:06 51°18.207 2°51.117 188.3 14.5 313.8 12.7
2002-08-13 07:19:11 51°18.22 2°51.093 187.3 14.5 312.7 12.9
2002-08-13 07:19:16 51°18.234 2°51.07 187.3 14.5 313.3 12.9
2002-08-13 07:19:21 51°18.247 2°51.046 186.8 14.5 312.3 13
2002-08-13 07:19:26 51°18.261 2°51.022 186.8 14.5 312.5 13.1
2002-08-13 07:19:31 51°18.274 2°50.998 186.5 14.5 311.9 13.3
2002-08-13 07:19:36 51°18.288 2°50.974 185.8 14.5 312 13.1
2002-08-13 07:19:41 51°18.301 2°50.949 185.5 14.5 310.9 13.3
2002-08-13 07:19:46 51°18.314 2°50.925 184.5 14.5 310 13.5
2002-08-13 07:19:51 51°18.327 2°50.901 184.8 14.5 310.4 13.6
2002-08-13 07:19:56 51°18.34 2°50.876 184.2 14.5 310.1 13.5
2002-08-13 07:20:00 51°18.351 2°50.857 184.8 14.5 310.4 13.7
2002-08-13 07:20:06 51°18.366 2°50.827 184.2 14.5 309.7 13.8
2002-08-13 07:20:11 51°18.379 2°50.803 184.2 14.5 310.3 13.7
2002-08-13 07:20:15 51°18.389 2°50.782 183.8 14.5 309.6 13.7
2002-08-13 07:20:21 51°18.405 2°50.753 183.7 14.5 309.8 13.9
2002-08-13 07:20:26 51°18.417 2°50.728 183.8 14.5 309.5 14
2002-08-13 07:20:31 51°18.43 2°50.703 183.2 14.4 309.2 14
2002-08-13 07:20:36 51°18.443 2°50.679 183.7 14.4 309.4 14.1
2002-08-13 07:20:40 51°18.453 2°50.659 183.7 14.4 309.2 14.2
2002-08-13 07:20:46 51°18.468 2°50.63 184.2 14.4 309.4 14.2
2002-08-13 07:20:51 51°18.481 2°50.604 183.7 14.5 309.3 14.3
2002-08-13 07:20:55 51°18.491 2°50.585 184.2 14.5 309.5 14.4
2002-08-13 07:21:01 51°18.506 2°50.555 183.5 14.5 309.2 14.4
2002-08-13 07:21:06 51°18.519 2°50.531 184.5 14.4 309.7 14.4
2002-08-13 07:21:11 51°18.531 2°50.505 184.2 14.4 309.3 14.3
2002-08-13 07:21:15 51°18.542 2°50.486 184.2 14.4 309.7 14.4
2002-08-13 07:21:21 51°18.557 2°50.456 183.5 14.5 309.1 14.4
2002-08-13 07:21:26 51°18.57 2°50.432 183.7 14.5 309.4 14.5
2002-08-13 07:21:31 51°18.582 2°50.407 183.8 14.5 309 14.3
2002-08-13 07:21:36 51°18.595 2°50.382 184.5 14.4 309.8 14.4
2002-08-13 07:21:40 51°18.605 2°50.362 184.5 14.4 309.5 14.3
2002-08-13 07:21:46 51°18.621 2°50.333 183.8 14.5 309.8 14.4
2002-08-13 07:21:51 51°18.633 2°50.308 184 14.5 309.3 14.4
2002-08-13 07:21:56 51°18.646 2°50.283 184 14.4 309.8 14.3
2002-08-13 07:22:00 51°18.656 2°50.263 184.2 14.4 309.4 14.3
2002-08-13 07:22:05 51°18.669 2°50.239 184 14.4 309.6 14.2
2002-08-13 07:22:11 51°18.684 2°50.209 184.3 14.4 309.6 14.1
2002-08-13 07:22:16 51°18.697 2°50.184 183.8 14.5 309.4 14
2002-08-13 07:22:20 51°18.707 2°50.164 184 14.4 309.3 14
2002-08-13 07:22:26 51°18.722 2°50.135 183.7 14.4 309.3 13.8
2002-08-13 07:22:31 51°18.735 2°50.11 184.5 14.4 309.4 13.5
2002-08-13 07:22:35 51°18.745 2°50.091 183.7 14.4 309.4 13.2
2002-08-13 07:22:41 51°18.761 2°50.061 184.7 14.5 309.7 12.9
2002-08-13 07:22:46 51°18.773 2°50.036 184.3 14.5 309.6 12.8
2002-08-13 07:22:51 51°18.786 2°50.011 184.3 14.5 309.9 12.8
2002-08-13 07:22:56 51°18.799 2°49.987 184.2 14.5 309.8 12.6
2002-08-13 07:23:01 51°18.812 2°49.962 184.5 14.5 310 12.7
2002-08-13 07:23:06 51°18.825 2°49.937 184.5 14.5 309.9 12.4
2002-08-13 07:23:11 51°18.838 2°49.913 184.8 14.5 310.1 12.2
2002-08-13 07:23:16 51°18.851 2°49.889 184.5 14.4 309.7 12.1
2002-08-13 07:23:21 51°18.864 2°49.864 184.3 14.4 310 11.6
2002-08-13 07:23:26 51°18.876 2°49.839 184 14.5 309.4 11.3
2002-08-13 07:23:31 51°18.889 2°49.815 184.2 14.4 309.7 11.2
2002-08-13 07:23:36 51°18.901 2°49.79 184.2 14.4 309.3 11.2
2002-08-13 07:23:40 51°18.912 2°49.77 184.5 14.4 309.9 11.2
2002-08-13 07:23:46 51°18.927 2°49.741 184.8 14.4 309.9 11.1
2002-08-13 07:23:51 51°18.94 2°49.717 184.7 14.4 310.1 10.9
2002-08-13 07:23:56 51°18.953 2°49.692 184.7 14.4 310 10.8
2002-08-13 07:24:00 51°18.963 2°49.673 184.7 14.4 309.7 10.9
2002-08-13 07:24:06 51°18.979 2°49.643 184 14.5 309.5 10.8
2002-08-13 07:24:10 51°18.989 2°49.623 184 14.5 309.3 10.9
2002-08-13 07:24:16 51°19.004 2°49.593 184.3 14.5 309.5 10.9
2002-08-13 07:24:20 51°19.014 2°49.573 184.3 14.5 309.1 11.1
2002-08-13 07:24:26 51°19.03 2°49.543 184.5 14.6 309.7 11.6
2002-08-13 07:24:31 51°19.043 2°49.518 184.5 14.6 309.2 11.6
2002-08-13 07:24:36 51°19.056 2°49.493 184.5 14.6 309.6 11.8
2002-08-13 07:24:40 51°19.066 2°49.473 184.2 14.7 309 11.7
2002-08-13 07:24:46 51°19.082 2°49.443 184.8 14.7 309.7 11.9
2002-08-13 07:24:51 51°19.094 2°49.417 184.3 14.7 309 12.3
2002-08-13 07:24:56 51°19.108 2°49.393 184.7 14.7 310 12.6
2002-08-13 07:25:01 51°19.12 2°49.367 184.8 14.7 309.7 12.7
2002-08-13 07:25:06 51°19.134 2°49.343 184.7 14.6 309.8 12.7
2002-08-13 07:25:11 51°19.146 2°49.318 184.8 14.6 309.5 12.9
2002-08-13 07:25:16 51°19.159 2°49.293 184.7 14.6 309.8 12.7
2002-08-13 07:25:20 51°19.169 2°49.273 184.8 14.6 309.4 12.8
2002-08-13 07:25:25 51°19.182 2°49.248 184.7 14.6 309.1 12.7
2002-08-13 07:25:31 51°19.198 2°49.218 185.2 14.5 309.5 12.8
2002-08-13 07:25:34 51°19.205 2°49.203 184.5 14.6 309.3 12.8
2002-08-13 07:25:41 51°19.223 2°49.168 185.2 14.5 309.9 12.8
2002-08-13 07:25:46 51°19.236 2°49.143 184.8 14.5 309.6 12.5
2002-08-13 07:25:51 51°19.249 2°49.118 184.3 14.5 309.4 12.5
2002-08-13 07:25:56 51°19.261 2°49.093 184 14.5 308.7 13.1
2002-08-13 07:26:00 51°19.271 2°49.073 183.8 14.5 308.6 13.7
2002-08-13 07:26:05 51°19.284 2°49.048 183.2 14.6 308 14.4
2002-08-13 07:26:11 51°19.299 2°49.017 183.3 14.6 308.4 14.9
2002-08-13 07:26:16 51°19.312 2°48.992 183.3 14.7 308.3 15.2
2002-08-13 07:26:20 51°19.322 2°48.972 183.2 14.6 308.2 15.6
2002-08-13 07:26:25 51°19.334 2°48.946 183.7 14.6 308.1 15.8
2002-08-13 07:26:31 51°19.349 2°48.915 183 14.6 307.8 16
2002-08-13 07:26:36 51°19.362 2°48.89 183.5 14.6 308.1 16.1
2002-08-13 07:26:40 51°19.371 2°48.869 183.2 14.6 307.4 16.2
2002-08-13 07:26:46 51°19.386 2°48.839 183.2 14.6 308.1 16.4
2002-08-13 07:26:51 51°19.399 2°48.813 183.2 14.5 307.5 16.6
2002-08-13 07:26:56 51°19.411 2°48.788 183.3 14.5 308.1 16.8
2002-08-13 07:27:00 51°19.421 2°48.767 183.5 14.6 307.8 17
2002-08-13 07:27:06 51°19.436 2°48.737 182.8 14.6 307.9 17.2
2002-08-13 07:27:11 51°19.449 2°48.712 184 14.5 308.1 17.4
2002-08-13 07:27:16 51°19.461 2°48.686 183.3 14.5 307.7 17.6
2002-08-13 07:27:21 51°19.473 2°48.661 183.3 14.5 308.1 17.9
2002-08-13 07:27:25 51°19.483 2°48.641 183 14.5 307.5 18
2002-08-13 07:27:31 51°19.498 2°48.611 183.7 14.5 308.3 18.2
2002-08-13 07:27:36 51°19.51 2°48.585 183.5 14.5 308 18.4
2002-08-13 07:27:41 51°19.523 2°48.56 183.8 14.5 308.7 18.7
2002-08-13 07:27:46 51°19.535 2°48.535 183.8 14.4 308.7 18.8
2002-08-13 07:27:51 51°19.548 2°48.51 183.8 14.5 308.7 19.1
2002-08-13 07:27:55 51°19.558 2°48.49 183.7 14.5 308.6 19.4
2002-08-13 07:28:00 51°19.57 2°48.465 183.5 14.5 308.4 19.6
2002-08-13 07:28:06 51°19.585 2°48.435 183.5 14.5 308.5 19.9
2002-08-13 07:28:11 51°19.598 2°48.409 183.5 14.5 308.4 20.1
2002-08-13 07:28:15 51°19.608 2°48.389 183.5 14.5 308.5 20.3
2002-08-13 07:28:21 51°19.623 2°48.359 184 14.6 308.9 20.6
2002-08-13 07:28:26 51°19.636 2°48.334 183.7 14.6 308.6 20.8
2002-08-13 07:28:31 51°19.648 2°48.309 183.2 14.6 308.6 21.1
2002-08-13 07:28:36 51°19.661 2°48.284 183.8 14.6 308.9 21.3
2002-08-13 07:28:40 51°19.671 2°48.264 183.3 14.5 308.6 21.4
2002-08-13 07:28:46 51°19.685 2°48.235 183.3 14 308.6 21.6
2002-08-13 07:28:51 51°19.697 2°48.212 183.2 13.6 308.5 21.6
2002-08-13 07:28:56 51°19.708 2°48.189 183.2 13.1 308.8 21.8
2002-08-13 07:29:00 51°19.717 2°48.172 183.2 12.8 308.8 21.9
2002-08-13 07:29:06 51°19.73 2°48.146 183.8 12.5 309.2 21.9
2002-08-13 07:29:11 51°19.741 2°48.125 183.7 12.3 309.4 22
2002-08-13 07:29:16 51°19.751 2°48.105 200.3 12.1 309.5 22
2002-08-13 07:29:20 51°19.76 2°48.088 240.3 11.9 309.2 22.1
2002-08-13 07:29:26 51°19.773 2°48.064 279.5 11.8 309.1 22.1
2002-08-13 07:29:31 51°19.783 2°48.043 311.7 11.7 309.1 22.1
2002-08-13 07:29:35 51°19.791 2°48.028 312.3 11.7 309 22.2
2002-08-13 07:29:41 51°19.803 2°48.004 312.7 11.6 309.3 22.1
2002-08-13 07:29:46 51°19.813 2°47.985 311.7 11.5 308.6 22.2
2002-08-13 07:29:51 51°19.822 2°47.965 309.8 11.4 307.4 22.1
2002-08-13 07:29:55 51°19.829 2°47.948 307.5 11.2 305 22.1
2002-08-13 07:30:00 51°19.838 2°47.929 306.5 10.7 303.7 22.1
2002-08-13 07:30:06 51°19.849 2°47.905 305.8 10 302.7 22.1
2002-08-13 07:30:11 51°19.857 2°47.887 305.7 9.6 302.3 22.1
2002-08-13 07:30:16 51°19.864 2°47.871 305 9 301.9 22.2
2002-08-13 07:30:20 51°19.869 2°47.858 304.3 8.7 301.3 22.2
2002-08-13 07:30:26 51°19.875 2°47.839 303.7 8.4 300.8 22.2
2002-08-13 07:30:31 51°19.88 2°47.825 302.8 8 300 22.2
2002-08-13 07:30:36 51°19.885 2°47.81 302.2 7.7 299.5 22.1
2002-08-13 07:30:40 51°19.888 2°47.799 301.8 7.5 299.1 22.2
2002-08-13 07:30:46 51°19.894 2°47.782 301.8 7.3 299.2 22.1
2002-08-13 07:30:51 51°19.898 2°47.769 301.8 7 298.9 22.1
2002-08-13 07:30:56 51°19.902 2°47.756 301.7 6.7 298.6 22.1
2002-08-13 07:31:00 51°19.905 2°47.746 302 6.4 298.7 22.1
2002-08-13 07:31:06 51°19.91 2°47.733 302 6 298.8 22.1
2002-08-13 07:31:11 51°19.913 2°47.723 301.2 5.5 298.5 22
2002-08-13 07:31:16 51°19.915 2°47.714 300.8 4.9 298.5 22.1
2002-08-13 07:31:20 51°19.917 2°47.708 300.5 3.8 297.3 22.1
2002-08-13 07:31:26 51°19.919 2°47.702 299.5 3.1 297.1 22.1
2002-08-13 07:31:31 51°19.92 2°47.699 298.5 2 296 22
2002-08-13 07:31:36 51°19.92 2°47.697 298.7 1.5 296.5 22
2002-08-13 07:31:40 51°19.92 2°47.697 298.7 0.5 296.3 22
2002-08-13 07:31:46 51°19.92 2°47.697 299.5   205.6 22.1
2002-08-13 07:31:51 51°19.92 2°47.697 300.7 0.1 121.8 22.1
2002-08-13 07:31:56 51°19.92 2°47.697 302 0.1 123.1 22.1
2002-08-13 07:32:00 51°19.92 2°47.697 303.3   172.9 -999
2002-08-13 07:32:07 51°19.92 2°47.697 305   114.5 -999
2002-08-13 07:32:12 51°19.92 2°47.697 306.5   165.7 -999
2002-08-13 07:32:16 51°19.92 2°47.697 308   46.2 -999
2002-08-13 07:32:22 51°19.92 2°47.697 309.7   0.6 -999
2002-08-13 07:32:27 51°19.92 2°47.697 311.5 0.1 17.1 -999
2002-08-13 07:32:32 51°19.92 2°47.697 313.2 0.1 15.9 -999
2002-08-13 07:32:36 51°19.92 2°47.697 314.7 0.1 19.1 -999
2002-08-13 07:32:41 51°19.92 2°47.697 315.8   7.8 22
2002-08-13 07:32:46 51°19.92 2°47.697 317   6 -999
2002-08-13 07:32:51 51°19.92 2°47.697 318   353.1 21.8
2002-08-13 07:32:56 51°19.92 2°47.697 319.3   8.3 21.6
2002-08-13 07:33:01 51°19.92 2°47.697 320.3 0.1 40.8 -999
2002-08-13 07:33:06 51°19.92 2°47.697 321.5 0.1 43.1 22
2002-08-13 07:33:12 51°19.921 2°47.698 322.8 0.1 57.1 -999
2002-08-13 07:33:16 51°19.921 2°47.698 324 0.1 52.4 16.7
2002-08-13 07:33:22 51°19.921 2°47.698 325 0.1 49.5 -999
2002-08-13 07:33:27 51°19.921 2°47.698 326 0.1 52.2 -999
2002-08-13 07:33:32 51°19.921 2°47.699 327 0.1 60.6 -999
2002-08-13 07:33:36 51°19.921 2°47.699 328.2 0.1 60.9 -999
2002-08-13 07:33:42 51°19.921 2°47.699 329   43.9 -999
2002-08-13 07:33:47 51°19.921 2°47.699 329.8 0.1 43.6 -999
2002-08-13 07:33:51 51°19.921 2°47.699 330.7 0.1 47.5 20.5
2002-08-13 07:33:56 51°19.921 2°47.699 331.5 0.1 55.5 -999
2002-08-13 07:34:00 51°19.921 2°47.699 332.3 0.1 65.4 21.9
2002-08-13 07:34:06 51°19.921 2°47.699 333.2 0.1 64.8 22
2002-08-13 07:34:11 51°19.922 2°47.7 334.2 0.1 58.3 19.9
2002-08-13 07:34:16 51°19.922 2°47.7 335.2 0.1 54.5 -999
2002-08-13 07:34:21 51°19.922 2°47.7 336.2 0.1 52.1 21.9
2002-08-13 07:34:26 51°19.922 2°47.7 337.3 0.1 52.4 21.9
2002-08-13 07:34:30 51°19.922 2°47.7 338 0.1 48 22
2002-08-13 07:34:35 51°19.922 2°47.7 339.2 0.1 53.5 22
2002-08-13 07:34:40 51°19.922 2°47.7 340.2 0.1 52.2 22
2002-08-13 07:34:46 51°19.922 2°47.7 341.2 0.1 58 22
2002-08-13 07:34:51 51°19.922 2°47.7 342 0.1 58.2 22
2002-08-13 07:34:56 51°19.922 2°47.701 342.5 0.1 42.1 22
2002-08-13 07:35:01 51°19.922 2°47.701 343.2 0.1 46.2 22
2002-08-13 07:35:06 51°19.922 2°47.701 344.3 0.1 53 22
2002-08-13 07:35:11 51°19.922 2°47.701 345.2 0.1 44.9 22
2002-08-13 07:35:16 51°19.922 2°47.701 346.2 0.1 50.1 22
2002-08-13 07:35:20 51°19.922 2°47.701 347 0.1 50.6 21.9
2002-08-13 07:35:26 51°19.923 2°47.701 348 0.1 58.2 22
2002-08-13 07:35:31 51°19.923 2°47.701 349 0.1 58.2 22
2002-08-13 07:35:36 51°19.923 2°47.701 349.8 0.1 60.5 22
2002-08-13 07:35:41 51°19.923 2°47.702 350.8 0.1 58.7 22
2002-08-13 07:35:46 51°19.923 2°47.702 351.8 0.1 59.1 22
2002-08-13 07:35:51 51°19.923 2°47.702 352.8 0.1 58.2 22
2002-08-13 07:35:55 51°19.923 2°47.702 354 0.1 49.6 22
2002-08-13 07:36:01 51°19.923 2°47.702 355.2 0.1 49.7 21.7
2002-08-13 07:36:06 51°19.923 2°47.703 356 0.1 53.6 22
2002-08-13 07:36:11 51°19.923 2°47.703 356.8 0.1 53.1 22.1
2002-08-13 07:36:16 51°19.923 2°47.703 357.8 0.1 63 22
2002-08-13 07:36:21 51°19.923 2°47.703 358.8 0.1 61.4 22.1
2002-08-13 07:36:26 51°19.924 2°47.704 359.8 0.1 55.1 22.1
2002-08-13 07:36:31 51°19.924 2°47.704 0.5 0.1 56.7 22.1
2002-08-13 07:36:36 51°19.924 2°47.704 1.5 0.1 57.4 22
2002-08-13 07:36:40 51°19.924 2°47.704 2.7 0.1 59.4 22
2002-08-13 07:36:46 51°19.924 2°47.705 3.3 0.2 55.3 22
2002-08-13 07:36:51 51°19.924 2°47.705 4.2 0.2 54.7 22
2002-08-13 07:36:56 51°19.925 2°47.705 4.8 0.2 55.2 22
2002-08-13 07:37:00 51°19.925 2°47.706 5.7 0.2 57 22
2002-08-13 07:37:04 51°19.925 2°47.706 6.2 0.2 58 21.9
2002-08-13 07:37:11 51°19.925 2°47.707 6.8 0.2 56.5 22
2002-08-13 07:37:16 51°19.925 2°47.707 7.2 0.2 53.3 22
2002-08-13 07:37:20 51°19.925 2°47.707 8 0.2 56.1 22
2002-08-13 07:37:24 51°19.925 2°47.707 8.3 0.2 51 22
2002-08-13 07:37:31 51°19.926 2°47.708 8.8 0.2 51.3 22
2002-08-13 07:37:36 51°19.926 2°47.708 9.2 0.2 45.4 22
2002-08-13 07:37:41 51°19.926 2°47.708 9.7 0.2 50.9 22
2002-08-13 07:37:46 51°19.926 2°47.708 9.8 0.2 51.7 22
2002-08-13 07:37:51 51°19.926 2°47.708 10.2 0.2 54.8 22
2002-08-13 07:37:55 51°19.926 2°47.709 10.3 0.2 47.9 22
2002-08-13 07:38:00 51°19.927 2°47.709 10.8 0.2 50 22
2002-08-13 07:38:05 51°19.927 2°47.71 10.8 0.2 48.2 22
2002-08-13 07:38:11 51°19.927 2°47.71 10.8 0.2 54.7 22
2002-08-13 07:38:16 51°19.927 2°47.711 11 0.2 58 22
2002-08-13 07:38:21 51°19.927 2°47.711 10.8 0.2 59 22
2002-08-13 07:38:26 51°19.927 2°47.711 10.8 0.2 55 22
2002-08-13 07:38:31 51°19.927 2°47.712 11 0.2 52.6 22
2002-08-13 07:38:35 51°19.927 2°47.712 10.8 0.2 44.5 21.9
2002-08-13 07:38:40 51°19.927 2°47.712 10.7 0.2 47.1 21.9
2002-08-13 07:38:45 51°19.927 2°47.712 10.7 0.2 46.6 21.9
2002-08-13 07:38:51 51°19.928 2°47.713 10.7 0.2 49.1 21.9
2002-08-13 07:38:56 51°19.928 2°47.713 10.8 0.2 50.3 21.9
2002-08-13 07:39:01 51°19.928 2°47.713 10.7 0.2 50.4 22
2002-08-13 07:39:06 51°19.929 2°47.714 10.5 0.2 51.9 22
2002-08-13 07:39:11 51°19.929 2°47.714 10.3 0.2 51.5 22
2002-08-13 07:39:15 51°19.929 2°47.715 10.3 0.2 52.2 22
2002-08-13 07:39:20 51°19.929 2°47.715 10 0.2 44.6 21.9
2002-08-13 07:39:25 51°19.929 2°47.715 9.8 0.2 47.2 21.9
2002-08-13 07:39:31 51°19.93 2°47.715 9.3 0.2 51.8 21.9
2002-08-13 07:39:36 51°19.93 2°47.715 9 0.2 52.6 21.9
2002-08-13 07:39:41 51°19.93 2°47.716 8.5 0.2 46.7 21.9
2002-08-13 07:39:46 51°19.93 2°47.716 8.2 0.2 49.2 21.9
2002-08-13 07:39:51 51°19.931 2°47.716 7.7 0.1 37.6 21.9
2002-08-13 07:39:55 51°19.931 2°47.716 7.5 0.2 34.9 21.9
2002-08-13 07:40:00 51°19.931 2°47.715 6.7 0.2 35.1 21.9
2002-08-13 07:40:05 51°19.931 2°47.716 6.3 0.2 37.3 21.9
2002-08-13 07:40:11 51°19.931 2°47.716 5.7 0.2 32.7 21.9
2002-08-13 07:40:16 51°19.932 2°47.716 5.2 0.2 30.7 21.9
2002-08-13 07:40:21 51°19.932 2°47.717 4.7 0.2 30.9 21.9
2002-08-13 07:40:26 51°19.932 2°47.717 4.3 0.2 39.3 21.9
2002-08-13 07:40:31 51°19.932 2°47.717 3.8 0.2 29.1 22
2002-08-13 07:40:36 51°19.932 2°47.717 3.5 0.2 32.7 21.9
2002-08-13 07:40:40 51°19.932 2°47.717 3.3 0.1 33.9 22
2002-08-13 07:40:45 51°19.933 2°47.717 3.2 0.2 33.6 22
2002-08-13 07:40:51 51°19.933 2°47.717 2.7 0.1 24.3 21.9
2002-08-13 07:40:55 51°19.933 2°47.717 2.2 0.1 24.3 21.9
2002-08-13 07:41:01 51°19.933 2°47.718 2.2 0.1 12.4 21.9
2002-08-13 07:41:06 51°19.934 2°47.718 1.8 0.1 14.5 21.9
2002-08-13 07:41:11 51°19.934 2°47.718 1 0.1 5.7 21.9
2002-08-13 07:41:16 51°19.934 2°47.718 0.8 0.1 11.5 21.9
2002-08-13 07:41:21 51°19.934 2°47.718 0.3 0.1 6.3 21.9
2002-08-13 07:41:26 51°19.934 2°47.718   0.1 9.2 22
2002-08-13 07:41:31 51°19.935 2°47.718 359.7 0.1 7.6 22
2002-08-13 07:41:36 51°19.935 2°47.717 359.5 0.2 14.5 22
2002-08-13 07:41:41 51°19.935 2°47.717 359.2 0.1 15.8 22
2002-08-13 07:41:46 51°19.935 2°47.717 359 0.1 10.8 22
2002-08-13 07:41:51 51°19.936 2°47.717 359 0.1 12.9 22
2002-08-13 07:41:56 51°19.936 2°47.717 358.7 0.1 12.2 22
2002-08-13 07:42:00 51°19.936 2°47.718 358.5 0.1 15.7 21.9
2002-08-13 07:42:05 51°19.936 2°47.718 358.7 0.2 14.1 21.9
2002-08-13 07:42:11 51°19.936 2°47.718 358.5 0.1 11 21.9
2002-08-13 07:42:16 51°19.936 2°47.718 358.5 0.1 359.1 21.9
2002-08-13 07:42:20 51°19.937 2°47.718 358 0.1 3.9 21.9
2002-08-13 07:42:26 51°19.937 2°47.718 358.2 0.1 356.9 21.9
2002-08-13 07:42:31 51°19.937 2°47.718 358.2 0.1 350.5 21.9
2002-08-13 07:42:36 51°19.937 2°47.718 357.7 0.1 346.4 21.9
2002-08-13 07:42:40 51°19.937 2°47.718 357.3 0.1 352.4 21.9
2002-08-13 07:42:44 51°19.938 2°47.718 357.2 0.1 358.4 22
2002-08-13 07:42:51 51°19.938 2°47.718 356.7 0.1 357.2 21.9
2002-08-13 07:42:56 51°19.938 2°47.718 356.7 0.1 353.2 22
2002-08-13 07:43:01 51°19.938 2°47.718 356.5 0.1 348.3 22
2002-08-13 07:43:06 51°19.938 2°47.718 356.3 0.1 350.4 21.9
2002-08-13 07:43:11 51°19.939 2°47.718 356.3 0.1 352.2 22
2002-08-13 07:43:16 51°19.939 2°47.718 356.3 0.1 359.6 22
2002-08-13 07:43:21 51°19.939 2°47.718 355.8 0.1 351.8 22
2002-08-13 07:43:26 51°19.939 2°47.718 355.7 0.1 352.8 22
2002-08-13 07:43:31 51°19.939 2°47.717 355.7 0.1 354.2 22
2002-08-13 07:43:36 51°19.939 2°47.717 355.7 0.1 352.3 22
2002-08-13 07:43:40 51°19.94 2°47.717 355.2 0.1 346.5 21.9
2002-08-13 07:43:46 51°19.94 2°47.717 354.8 0.1 337.7 21.9
2002-08-13 07:43:51 51°19.94 2°47.717 354.7 0.1 336 21.9
2002-08-13 07:43:56 51°19.94 2°47.717 354.7 0.1 328.6 21.8
2002-08-13 07:44:00 51°19.94 2°47.717 354.5 0.1 337.2 21.8
2002-08-13 07:44:06 51°19.941 2°47.717 354.2 0.1 346.2 21.8
2002-08-13 07:44:11 51°19.941 2°47.716 353.8 0.1 334.8 21.8
2002-08-13 07:44:16 51°19.941 2°47.716 354 0.1 326.1 21.8
2002-08-13 07:44:20 51°19.941 2°47.716 353.7 0.1 330.2 21.8
2002-08-13 07:44:26 51°19.941 2°47.716 353.3 0.1 320.4 21.8
2002-08-13 07:44:31 51°19.941 2°47.716 353.5 0.1 330.7 21.8
2002-08-13 07:44:36 51°19.941 2°47.716 353.2 0.1 337.8 21.9
2002-08-13 07:44:41 51°19.941 2°47.716 353.2 0.1 345.8 21.9
2002-08-13 07:44:46 51°19.942 2°47.716 352.8 0.1 341.5 21.8
2002-08-13 07:44:51 51°19.942 2°47.716 353 0.1 357 21.8
2002-08-13 07:44:56 51°19.942 2°47.716 353 0.1 356 21.8
2002-08-13 07:45:01 51°19.942 2°47.716 353.3 0.1 344.7 21.9
2002-08-13 07:45:06 51°19.942 2°47.715 353.2 0.1 332.8 21.8
2002-08-13 07:45:11 51°19.942 2°47.715 353.5 0.1 337.7 21.8
2002-08-13 07:45:16 51°19.942 2°47.715 353.5 0.1 330.4 21.9
2002-08-13 07:45:21 51°19.942 2°47.715 353.5 0.1 344.8 21.9
2002-08-13 07:45:26 51°19.943 2°47.715 353.5 0.1 353.5 21.9
2002-08-13 07:45:31 51°19.943 2°47.715 353.5 0.1 350.7 21.9
2002-08-13 07:45:35 51°19.943 2°47.715 353.8 0.1 347.5 21.9
2002-08-13 07:45:41 51°19.943 2°47.715 353.5 0.1 326.9 21.9
2002-08-13 07:45:46 51°19.943 2°47.715 353.7 0.1 332.2 21.9
2002-08-13 07:45:51 51°19.943 2°47.715 353.5 0.1 328.7 21.9
2002-08-13 07:45:56 51°19.943 2°47.714 353.2 0.1 339.6 21.9
2002-08-13 07:46:01 51°19.944 2°47.714 353 0.1 334.9 21.9
2002-08-13 07:46:06 51°19.944 2°47.714 353.2 0.1 353.5 21.9
2002-08-13 07:46:11 51°19.944 2°47.714 353 0.1 336.3 21.9
2002-08-13 07:46:16 51°19.944 2°47.714 353.2 0.1 342 21.9
2002-08-13 07:46:21 51°19.944 2°47.714 353.2 0.1 322.9 21.9
2002-08-13 07:46:26 51°19.944 2°47.714 353.3 0.1 346.7 21.9
2002-08-13 07:46:31 51°19.944 2°47.713 353 0.1 341.4 21.9
2002-08-13 07:46:36 51°19.945 2°47.713 353.3 0.1 327.8 21.9
2002-08-13 07:46:40 51°19.945 2°47.713 353 0.1 331.8 21.9
2002-08-13 07:46:46 51°19.945 2°47.713 353 0.1 334.6 21.9
2002-08-13 07:46:51 51°19.945 2°47.713 353.2 0.1 333 21.9
2002-08-13 07:46:56 51°19.945 2°47.713 353.5 0.1 340.5 21.9
2002-08-13 07:47:00 51°19.945 2°47.713 353.7 0.1 346.8 21.9
2002-08-13 07:47:06 51°19.946 2°47.712 353.8 0.1 346.9 21.9
2002-08-13 07:47:11 51°19.946 2°47.712 354 0.1 336.1 21.9
2002-08-13 07:47:16 51°19.946 2°47.712 354.3 0.1 334.6 21.9
2002-08-13 07:47:21 51°19.946 2°47.712 354.2 0.1 337.1 21.9
2002-08-13 07:47:26 51°19.946 2°47.712 354.7 0.1 335.4 21.8
2002-08-13 07:47:31 51°19.946 2°47.712 354.5 0.1 338.1 21.8
2002-08-13 07:47:36 51°19.947 2°47.712 354.8 0.1 349.9 21.8
2002-08-13 07:47:41 51°19.947 2°47.712 354.8 0.1 355.9 21.8
2002-08-13 07:47:46 51°19.947 2°47.712 355 0.1 344.3 21.8
2002-08-13 07:47:51 51°19.947 2°47.712 355.2 0.1 332.2 21.8
2002-08-13 07:47:56 51°19.947 2°47.712 355.2 0.1 327.8 21.8
2002-08-13 07:48:01 51°19.947 2°47.712 355.3 0.1 331.1 21.8
2002-08-13 07:48:06 51°19.947 2°47.711 355.5 0.1 323.1 21.8
2002-08-13 07:48:11 51°19.948 2°47.711 355.5 0.1 333.1 21.8
2002-08-13 07:48:16 51°19.948 2°47.711 355.5 0.1 330.3 21.8
2002-08-13 07:48:20 51°19.948 2°47.711 355.3 0.1 333.2 21.8
2002-08-13 07:48:24 51°19.948 2°47.711 355.3 0.1 331.1 21.8
2002-08-13 07:48:31 51°19.948 2°47.711 355.3 0.1 343.4 21.8
2002-08-13 07:48:36 51°19.948 2°47.711 355.7 0.1 342.3 21.8
2002-08-13 07:48:41 51°19.949 2°47.711 355.8 0.1 335.4 21.8
2002-08-13 07:48:46 51°19.949 2°47.711 355.7 0.1 334.5 21.8
2002-08-13 07:48:51 51°19.949 2°47.711 355.8 0.1 348.5 21.8
2002-08-13 07:48:56 51°19.949 2°47.71 355.8 0.1 345.4 21.8
2002-08-13 07:49:01 51°19.949 2°47.71 355.8 0.1 341 21.8
2002-08-13 07:49:06 51°19.95 2°47.71 356.2 0.1 346.7 21.7
2002-08-13 07:49:11 51°19.95 2°47.71 356 0.1 336 21.7
2002-08-13 07:49:16 51°19.95 2°47.71 356 0.1 336.3 21.7
2002-08-13 07:49:20 51°19.95 2°47.71 355.7 0.2 333.8 21.7
2002-08-13 07:49:26 51°19.95 2°47.71 356 0.1 342.9 21.8
2002-08-13 07:49:31 51°19.95 2°47.709 355.8 0.1 335.7 21.7
2002-08-13 07:49:36 51°19.951 2°47.709 356 0.2 336 21.8
2002-08-13 07:49:40 51°19.951 2°47.709 355.7 0.2 334.3 21.7
2002-08-13 07:49:45 51°19.951 2°47.709 355.8 0.2 342.4 21.7
2002-08-13 07:49:51 51°19.951 2°47.709 356.2 0.1 344.6 21.7
2002-08-13 07:49:56 51°19.952 2°47.708 356.5 0.1 338.5 21.7
2002-08-13 07:50:00 51°19.952 2°47.708 356.5 0.2 332.1 21.7
2002-08-13 07:50:05 51°19.952 2°47.708 356.2 0.2 328.3 21.7
2002-08-13 07:50:11 51°19.952 2°47.708 356.2 0.2 327.5 21.7
2002-08-13 07:50:16 51°19.952 2°47.707 355.8 0.2 314.6 21.7
2002-08-13 07:50:21 51°19.953 2°47.707 355.8 0.2 310.3 21.7
2002-08-13 07:50:26 51°19.953 2°47.707 355.5 0.2 314.9 21.7
2002-08-13 07:50:31 51°19.953 2°47.706 355.3 0.2 316.7 21.7
2002-08-13 07:50:36 51°19.953 2°47.706 355.3 0.2 317.9 21.7
2002-08-13 07:50:40 51°19.953 2°47.706 355.2 0.2 314.4 21.7
2002-08-13 07:50:45 51°19.953 2°47.706 355.2 0.2 313.4 21.7
2002-08-13 07:50:51 51°19.954 2°47.706 355.2 0.2 317 21.8
2002-08-13 07:50:56 51°19.954 2°47.706 355.3 0.2 320.1 21.8
2002-08-13 07:51:01 51°19.954 2°47.705 354.8 0.2 321.9 21.8
2002-08-13 07:51:06 51°19.954 2°47.705 354.8 0.2 317.9 21.8
2002-08-13 07:51:11 51°19.954 2°47.705 355 0.2 317.4 21.8
2002-08-13 07:51:15 51°19.954 2°47.705 354.8 0.2 314.4 21.8
2002-08-13 07:51:20 51°19.955 2°47.704 355 0.2 314.6 21.8
2002-08-13 07:51:25 51°19.955 2°47.704 355 0.2 324.1 21.8
2002-08-13 07:51:31 51°19.955 2°47.704 355.2 0.2 319.3 21.8
2002-08-13 07:51:36 51°19.955 2°47.703 355.2 0.2 323.7 21.8
2002-08-13 07:51:41 51°19.956 2°47.703 355 0.2 323.6 21.8
2002-08-13 07:51:46 51°19.956 2°47.703 354.8 0.2 325.1 21.8
2002-08-13 07:51:51 51°19.956 2°47.702 355 0.2 317.1 21.8
2002-08-13 07:51:55 51°19.956 2°47.702 355.5 0.2 320.9 21.8
2002-08-13 07:52:00 51°19.956 2°47.702 355.5 0.2 316.7 21.8
2002-08-13 07:52:05 51°19.957 2°47.702 355.7 0.2 316 21.8
2002-08-13 07:52:11 51°19.957 2°47.701 355.7 0.2 308.6 21.8
2002-08-13 07:52:16 51°19.957 2°47.701 356 0.2 312.4 21.8
2002-08-13 07:52:21 51°19.957 2°47.7 356.2 0.2 313.8 21.8
2002-08-13 07:52:26 51°19.957 2°47.7 356.2 0.2 317.6 21.8
2002-08-13 07:52:31 51°19.958 2°47.7 356.2 0.2 319.9 21.8
2002-08-13 07:52:36 51°19.958 2°47.7 356.3 0.2 323.8 21.8
2002-08-13 07:52:40 51°19.958 2°47.699 356.8 0.2 324.8 21.8
2002-08-13 07:52:45 51°19.958 2°47.699 357.3 0.2 327.3 21.8
2002-08-13 07:52:51 51°19.959 2°47.699 358 0.3 335.9 21.8
2002-08-13 07:52:56 51°19.959 2°47.699 358.7 0.3 337.9 21.8
2002-08-13 07:53:01 51°19.96 2°47.698 359.5 0.3 338 21.8
2002-08-13 07:53:06 51°19.96 2°47.698   0.4 338.5 21.8
2002-08-13 07:53:11 51°19.961 2°47.697 0.8 0.4 340.8 21.8
2002-08-13 07:53:16 51°19.961 2°47.697 1.7 0.5 338.8 21.7
2002-08-13 07:53:21 51°19.962 2°47.697 2.5 0.5 343.6 21.7
2002-08-13 07:53:26 51°19.963 2°47.697 3.3 0.6 352.1 21.6
2002-08-13 07:53:31 51°19.964 2°47.697 4.8 0.8 357.2 21.8
2002-08-13 07:53:36 51°19.966 2°47.696 7.8 1.2 359.2 21.8
2002-08-13 07:53:41 51°19.969 2°47.697 12.7 1.7 4.4 21.8
2002-08-13 07:53:46 51°19.972 2°47.698 17.8 2 9.2 21.7
2002-08-13 07:53:51 51°19.975 2°47.7 23.3 2.2 14.5 21.8
2002-08-13 07:53:56 51°19.978 2°47.702 28.7 2.4 22.4 21.7
2002-08-13 07:54:01 51°19.981 2°47.705 34 2.6 27.7 21.8
2002-08-13 07:54:06 51°19.985 2°47.709 40.8 2.9 34.7 21.6
2002-08-13 07:54:11 51°19.988 2°47.714 47 3 40.2 21.8
2002-08-13 07:54:15 51°19.99 2°47.718 52.8 3 45.4 21.8
2002-08-13 07:54:21 51°19.993 2°47.724 58.2 2.9 52.7 21.7
2002-08-13 07:54:26 51°19.995 2°47.729 62.8 2.8 57.8 21.8
2002-08-13 07:54:31 51°19.996 2°47.734 67.2 2.7 62.7 21.7
2002-08-13 07:54:36 51°19.997 2°47.739 70.7 2.6 67.3 21.8
2002-08-13 07:54:41 51°19.998 2°47.745 74.3 2.5 70.9 21.8
2002-08-13 07:54:46 51°19.998 2°47.75 77.7 2.4 74.5 21.8
2002-08-13 07:54:51 51°19.999 2°47.754 80.8 2.4 77.8 21.6
2002-08-13 07:54:55 51°19.999 2°47.758 83.8 2.3 80.8 21.6
2002-08-13 07:55:01 51°19.999 2°47.764 87 2.3 86.4 21.8
2002-08-13 07:55:06 51°19.999 2°47.769 90.2 2.2 89.1 21.7
2002-08-13 07:55:11 51°19.999 2°47.774 93 2.2 92.8 21.8
2002-08-13 07:55:16 51°19.998 2°47.778 96 2.1 96.7 21.8
2002-08-13 07:55:21 51°19.998 2°47.783 99.2 2.1 100.1 21.8
2002-08-13 07:55:26 51°19.997 2°47.787 101.8 2.1 104.2 21.7
2002-08-13 07:55:31 51°19.995 2°47.791 104.5 2 107.6 21.8
2002-08-13 07:55:35 51°19.995 2°47.795 107.8 2 110.6 21.7
2002-08-13 07:55:41 51°19.993 2°47.799 110.7 2 115.3 21.8
2002-08-13 07:55:46 51°19.992 2°47.803 113.5 2 118.7 21.8
2002-08-13 07:55:51 51°19.99 2°47.807 116.3 2 121.2 21.7
2002-08-13 07:55:56 51°19.989 2°47.811 119.2 2 125.2 21.7
2002-08-13 07:56:01 51°19.987 2°47.814 122.5 2 128.2 21.8
2002-08-13 07:56:06 51°19.985 2°47.817 125.3 2 131.4 21.8
2002-08-13 07:56:11 51°19.983 2°47.82 128.3 2 134.9 21.8
2002-08-13 07:56:16 51°19.981 2°47.823 131.3 2 138 21.8
2002-08-13 07:56:20 51°19.98 2°47.826 133.8 2 141.2 21.8
2002-08-13 07:56:26 51°19.977 2°47.829 136.7 2 144 21.7
2002-08-13 07:56:31 51°19.975 2°47.831 139.7 2 147.5 21.8
2002-08-13 07:56:36 51°19.972 2°47.833 142.3 2 151.5 21.8
2002-08-13 07:56:40 51°19.97 2°47.835 145.3 2 153.7 21.9
2002-08-13 07:56:46 51°19.967 2°47.837 148.2 2 155 21.8
2002-08-13 07:56:51 51°19.965 2°47.838 150.8 2 158.2 21.8
2002-08-13 07:56:56 51°19.962 2°47.839 153.5 2 161.2 21.8
2002-08-13 07:57:01 51°19.959 2°47.84 156.5 2 164.3 21.8
2002-08-13 07:57:06 51°19.957 2°47.841 158.8 2 167.4 21.8
2002-08-13 07:57:11 51°19.954 2°47.842 161.5 2 170 21.7
2002-08-13 07:57:15 51°19.951 2°47.842 164 1.9 172 21.8
2002-08-13 07:57:20 51°19.949 2°47.842 166.7 2 174.1 21.8
2002-08-13 07:57:26 51°19.946 2°47.842 169.3 2 177.3 21.9
2002-08-13 07:57:31 51°19.943 2°47.842 171.5 2 179.4 21.8
2002-08-13 07:57:36 51°19.94 2°47.842 173.8 2 182.2 21.9
2002-08-13 07:57:41 51°19.938 2°47.842 176.3 2 183.6 21.8
2002-08-13 07:57:46 51°19.935 2°47.842 178.7 2 185.5 21.8
2002-08-13 07:57:51 51°19.932 2°47.841 180.8 2 187.7 21.8
2002-08-13 07:57:56 51°19.929 2°47.84 182.5 2 189 21.8
2002-08-13 07:58:01 51°19.927 2°47.84 183.7 2 190.1 21.9
2002-08-13 07:58:06 51°19.925 2°47.84 184.7 2 191.8 21.8
2002-08-13 07:58:11 51°19.923 2°47.839 185.2 2 192.5 21.8
2002-08-13 07:58:16 51°19.92 2°47.839 185.8 2 192.9 21.8
2002-08-13 07:58:20 51°19.918 2°47.838 186.5 2 193.7 21.8
2002-08-13 07:58:26 51°19.915 2°47.837 187 2.1 194.2 21.9
2002-08-13 07:58:31 51°19.912 2°47.835 187.7 2.1 194.5 21.8
2002-08-13 07:58:36 51°19.91 2°47.834 188.2 2.1 194.7 21.8
2002-08-13 07:58:41 51°19.907 2°47.833 188.5 2.1 195.5 21.7
2002-08-13 07:58:46 51°19.904 2°47.831 189 2.1 195.5 21.8
2002-08-13 07:58:51 51°19.901 2°47.83 189.3 2.1 196.2 21.8
2002-08-13 07:58:56 51°19.898 2°47.828 189.7 2.1 196.1 21.8
2002-08-13 07:59:01 51°19.895 2°47.826 190 2.1 196.8 21.8
2002-08-13 07:59:06 51°19.892 2°47.825 190.3 2.1 197.2 21.7
2002-08-13 07:59:11 51°19.889 2°47.824 190.7 2.1 196.5 21.7
2002-08-13 07:59:16 51°19.887 2°47.823 191.2 2.1 196.5 21.9
2002-08-13 07:59:20 51°19.885 2°47.822 191.5 2.1 196.4 21.7
2002-08-13 07:59:24 51°19.882 2°47.82 191.7 2.2 196.2 21.8
2002-08-13 07:59:31 51°19.878 2°47.818 191.8 2.2 196.3 21.7
2002-08-13 07:59:36 51°19.875 2°47.817 192.2 2.2 196.3 21.8
2002-08-13 07:59:41 51°19.872 2°47.815 192.5 2.2 196.5 21.7
2002-08-13 07:59:46 51°19.868 2°47.813 192.5 2.2 197.4 21.8
2002-08-13 07:59:51 51°19.864 2°47.811 192.8 2.3 197.5 21.8
2002-08-13 07:59:56 51°19.861 2°47.809 193.2 2.3 197.2 21.8
2002-08-13 08:00:00 51°19.859 2°47.808 193.3 2.4 197.7 21.7
2002-08-13 08:00:06 51°19.856 2°47.806 193.7 2.4 197.7 21.8
2002-08-13 08:00:11 51°19.853 2°47.805 193.7 2.3 198.2 21.7
2002-08-13 08:00:16 51°19.851 2°47.804 194 2.3 198.7 21.9
2002-08-13 08:00:21 51°19.848 2°47.802 194.5 2.3 199.7 21.7
2002-08-13 08:00:26 51°19.845 2°47.801 195.2 2.3 200.4 21.7
2002-08-13 08:00:31 51°19.842 2°47.799 195.8 2.3 200.6 21.7
2002-08-13 08:00:36 51°19.839 2°47.797 196.5 2.2 200.6 21.8
2002-08-13 08:00:40 51°19.837 2°47.796 197.5 2.2 200.9 21.8
2002-08-13 08:00:46 51°19.834 2°47.793 198.3 2.2 201.5 21.8
2002-08-13 08:00:51 51°19.831 2°47.792 199.2 2.2 202.2 21.8
2002-08-13 08:00:56 51°19.828 2°47.789 200 2.2 202.9 21.7
2002-08-13 08:01:01 51°19.825 2°47.787 200.7 2.2 203.3 21.8
2002-08-13 08:01:06 51°19.822 2°47.786 201.3 2.1 204.2 21.8
2002-08-13 08:01:11 51°19.82 2°47.783 202.3 2.1 205.2 21.7
2002-08-13 08:01:15 51°19.817 2°47.781 203.2 2.1 206.5 21.8
2002-08-13 08:01:21 51°19.814 2°47.779 204 2.1 207.1 21.8
2002-08-13 08:01:26 51°19.812 2°47.777 204.7 2.1 207.6 21.7
2002-08-13 08:01:31 51°19.809 2°47.775 205.7 2.1 208 21.8
2002-08-13 08:01:36 51°19.807 2°47.772 206.5 2.1 208.1 21.8
2002-08-13 08:01:40 51°19.805 2°47.771 207.5 2.1 208.8 21.8
2002-08-13 08:01:46 51°19.802 2°47.768 208.5 2.1 209.5 21.7
2002-08-13 08:01:51 51°19.799 2°47.765 209.3 2.1 211 21.8
2002-08-13 08:01:56 51°19.797 2°47.763 210.2 2 211.5 21.8
2002-08-13 08:02:00 51°19.795 2°47.761 211 2 212.5 21.7
2002-08-13 08:02:06 51°19.792 2°47.758 211.8 2 213.8 21.7
2002-08-13 08:02:11 51°19.79 2°47.755 212.8 2 214.2 21.7
2002-08-13 08:02:16 51°19.788 2°47.753 213.7 2 215.7 21.8
2002-08-13 08:02:21 51°19.785 2°47.75 214.3 2 215.5 21.7
2002-08-13 08:02:26 51°19.783 2°47.748 215.2 1.9 216.2 21.7
2002-08-13 08:02:31 51°19.781 2°47.745 216 1.9 217 21.8
2002-08-13 08:02:36 51°19.779 2°47.742 216.7 1.9 218 21.7
2002-08-13 08:02:40 51°19.777 2°47.74 217.3 1.9 217.8 21.7
2002-08-13 08:02:46 51°19.775 2°47.737 217.8 1.9 218.4 21.7
2002-08-13 08:02:51 51°19.773 2°47.735 218.7 1.9 218.1 21.7
2002-08-13 08:02:56 51°19.771 2°47.732 219 1.9 218.1 21.7
2002-08-13 08:03:00 51°19.77 2°47.73 219.7 1.8 218.3 21.7
2002-08-13 08:03:06 51°19.767 2°47.727 220 1.8 219.2 21.7
2002-08-13 08:03:11 51°19.765 2°47.725 220.7 1.8 219.7 21.7
2002-08-13 08:03:16 51°19.763 2°47.722 221.2 1.8 220.5 21.7
2002-08-13 08:03:21 51°19.761 2°47.719 222 1.8 220.3 21.8
2002-08-13 08:03:26 51°19.76 2°47.717 222.3 1.8 221 21.8
2002-08-13 08:03:31 51°19.758 2°47.714 222.7 1.8 221.1 21.7
2002-08-13 08:03:36 51°19.756 2°47.711 223.3 1.8 222.5 21.7
2002-08-13 08:03:41 51°19.754 2°47.709 224.2 1.8 222.3 21.7
2002-08-13 08:03:46 51°19.752 2°47.706 225 1.8 222.6 21.7
2002-08-13 08:03:51 51°19.751 2°47.703 226.5 1.9 223.2 21.7
2002-08-13 08:03:56 51°19.749 2°47.7 227.5 1.9 225.2 21.7
2002-08-13 08:04:01 51°19.747 2°47.697 228.8 1.9 226.1 21.6
2002-08-13 08:04:06 51°19.745 2°47.692 230.2 2.3 229.5 21.7
2002-08-13 08:04:11 51°19.742 2°47.687 234 2.8 231.1 21.6
2002-08-13 08:04:16 51°19.74 2°47.679 240.2 3.3 236.3 21.6
2002-08-13 08:04:21 51°19.737 2°47.671 247.5 4 245 21.6
2002-08-13 08:04:26 51°19.736 2°47.66 255.8 4.7 253.3 21.6
2002-08-13 08:04:31 51°19.735 2°47.648 266.2 5.2 259.9 21.5
2002-08-13 08:04:36 51°19.736 2°47.634 276.2 6.1 270.5 21.5
2002-08-13 08:04:41 51°19.737 2°47.617 283.5 6.9 276.3 21.5
2002-08-13 08:04:46 51°19.74 2°47.598 285.5 8.3 280.6 21.3
2002-08-13 08:04:51 51°19.743 2°47.577 287 9.1 282.6 21.4
2002-08-13 08:04:56 51°19.748 2°47.555 292.3 10.2 287.6 21.4
2002-08-13 08:05:00 51°19.753 2°47.538 299.3 10.8 292.4 21.2
2002-08-13 08:05:06 51°19.762 2°47.51 303.2 11.3 295.6 21.3
2002-08-13 08:05:11 51°19.77 2°47.486 304.7 12 298.8 21.4
2002-08-13 08:05:16 51°19.779 2°47.461 302.7 12.4 298.5 21.3
2002-08-13 08:05:20 51°19.785 2°47.439 300.2 13 296.1 21.2
2002-08-13 08:05:26 51°19.793 2°47.406 298.3 13.4 293.3 21.3
2002-08-13 08:05:31 51°19.8 2°47.378 295.7 13.6 291.6 21.2
2002-08-13 08:05:36 51°19.805 2°47.349 292 13.8 287.8 21.1
2002-08-13 08:05:41 51°19.81 2°47.319 288.8 13.9 285.8 21
2002-08-13 08:05:46 51°19.814 2°47.288 287.2 14.1 283.4 20.9
2002-08-13 08:05:51 51°19.818 2°47.257 286.5 14.2 282.3 20.9
2002-08-13 08:05:56 51°19.822 2°47.226 284.5 14.2 281.3 20.8
2002-08-13 08:06:00 51°19.824 2°47.201 281.8 14.3 278.9 20.6
2002-08-13 08:06:06 51°19.826 2°47.163 280.3 14.4 276.8 20.3
2002-08-13 08:06:11 51°19.829 2°47.131 279.8 14.4 276.5 20.3
2002-08-13 08:06:16 51°19.83 2°47.099 278.8 14.5 275.3 20.3
2002-08-13 08:06:21 51°19.831 2°47.067 277 14.5 274.1 20.2
2002-08-13 08:06:26 51°19.832 2°47.035 275.7 14.5 272.5 20.2
2002-08-13 08:06:31 51°19.831 2°47.003 273.2 14.5 270.6 20.1
2002-08-13 08:06:36 51°19.83 2°46.97 270.2 14.5 267 19.7
2002-08-13 08:06:40 51°19.828 2°46.945 267.5 14.5 265.1 19.3
2002-08-13 08:06:46 51°19.824 2°46.907 264.3 14.5 261.4 18.9
2002-08-13 08:06:51 51°19.82 2°46.875 261.8 14.5 259.9 19.5
2002-08-13 08:06:56 51°19.815 2°46.845 257.8 14.5 255.3 19.2
2002-08-13 08:07:00 51°19.81 2°46.82 255 14.5 253.6 19.3
2002-08-13 08:07:06 51°19.802 2°46.784 252.7 14.5 250.4 18.9
2002-08-13 08:07:11 51°19.795 2°46.753 250.7 14.6 249.2 18.3
2002-08-13 08:07:16 51°19.787 2°46.723 249 14.6 247.4 18.3
2002-08-13 08:07:21 51°19.779 2°46.694 247.5 14.6 246.2 18.8
2002-08-13 08:07:26 51°19.77 2°46.665 246.7 14.6 245.2 17.9
2002-08-13 08:07:31 51°19.761 2°46.636 244.5 14.6 243.6 18.7
2002-08-13 08:07:36 51°19.752 2°46.607 244.2 14.6 243.5 18.4
2002-08-13 08:07:40 51°19.744 2°46.584 243 14.6 242.6 17.3
2002-08-13 08:07:46 51°19.733 2°46.55 242.2 14.7 241.7 18.5
2002-08-13 08:07:51 51°19.723 2°46.521 242.5 14.7 241.9 18.3
2002-08-13 08:07:56 51°19.713 2°46.493 242 14.7 241.4 17
2002-08-13 08:08:00 51°19.706 2°46.47 241.5 14.7 241.5 17.9
2002-08-13 08:08:06 51°19.694 2°46.435 242.2 14.7 241.6 17.6
2002-08-13 08:08:11 51°19.685 2°46.406 242.3 14.7 242.1 16
2002-08-13 08:08:16 51°19.675 2°46.378 242 14.7 241.3 17.7
2002-08-13 08:08:20 51°19.668 2°46.355 242.3 14.7 242.3 16.9
2002-08-13 08:08:26 51°19.656 2°46.32 242.5 14.7 242.1 17.6
2002-08-13 08:08:31 51°19.647 2°46.291 242.5 14.8 242.5 16.2
2002-08-13 08:08:36 51°19.637 2°46.262 242.7 14.8 242.3 16.3
2002-08-13 08:08:41 51°19.628 2°46.233 242.7 14.8 242.8 16.7
2002-08-13 08:08:46 51°19.619 2°46.204 243.2 14.8 243 16.8
2002-08-13 08:08:51 51°19.61 2°46.174 244 14.8 243.6 16.2
2002-08-13 08:08:56 51°19.602 2°46.145 244.5 14.8 244.6 14.7
2002-08-13 08:09:00 51°19.594 2°46.121 244.8 14.8 244.7 16.3
2002-08-13 08:09:06 51°19.584 2°46.085 245.7 14.8 245.6 15.4
2002-08-13 08:09:11 51°19.576 2°46.056 245.5 14.8 245.5 14.1
2002-08-13 08:09:16 51°19.568 2°46.026 245.8 14.8 246 15.5
2002-08-13 08:09:21 51°19.559 2°45.996 245.8 14.8 245.8 15.3
2002-08-13 08:09:26 51°19.551 2°45.966 245.7 14.8 245.6 14.5
2002-08-13 08:09:31 51°19.542 2°45.936 245.8 14.8 245.9 14.3
2002-08-13 08:09:36 51°19.534 2°45.906 246.2 14.8 246.1 14.8
2002-08-13 08:09:40 51°19.528 2°45.882 246.5 14.8 246.5 14.3
2002-08-13 08:09:46 51°19.518 2°45.846 246.7 14.8 246.7 14.3
2002-08-13 08:09:51 51°19.51 2°45.816 246.3 14.8 246.7 12.9
2002-08-13 08:09:56 51°19.501 2°45.786 245.8 14.8 246.4 14.4
2002-08-13 08:10:00 51°19.495 2°45.762 245.5 14.8 245.9 13.3
2002-08-13 08:10:06 51°19.485 2°45.726 245.7 14.8 246.2 12.7
2002-08-13 08:10:11 51°19.476 2°45.696 245.3 14.7 245.8 13.5
2002-08-13 08:10:16 51°19.468 2°45.666 245.2 14.8 245.9 13.3
2002-08-13 08:10:21 51°19.459 2°45.636 244.5 14.9 245.2 13
2002-08-13 08:10:26 51°19.45 2°45.606 244.5 14.9 245.2 12.2
2002-08-13 08:10:31 51°19.442 2°45.577 244 14.8 245 12
2002-08-13 08:10:36 51°19.433 2°45.548 243.7 14.7 244.7 11.9
2002-08-13 08:10:41 51°19.425 2°45.517 244.2 14.7 245.3 11.7
2002-08-13 08:10:46 51°19.416 2°45.488 244.7 14.8 245.6 12.1
2002-08-13 08:10:51 51°19.408 2°45.457 244.3 14.9 245.8 11.8
2002-08-13 08:10:56 51°19.399 2°45.427 244.3 15 245.8 11.5
2002-08-13 08:11:01 51°19.391 2°45.397 244.7 15 246 10.9
2002-08-13 08:11:06 51°19.383 2°45.367 244.7 14.8 245.9 10.5
2002-08-13 08:11:11 51°19.375 2°45.338 244.7 14.7 246.2 11.9
2002-08-13 08:11:16 51°19.366 2°45.308 244.8 14.7 246.3 10.3
2002-08-13 08:11:21 51°19.358 2°45.278 244.3 14.8 246.2 10.4